Tajique, New Mexico
Current Conditions -  °F | °C
As of 4:15 AM on Saturday 25 Oct 2014 (Local Time) from K0E0 Reporting Station
Clear Clear  
Wind Chill: 33°   Ceiling: Unl
Heat Index: 33°   Visibility: 10mi
Dew Point: 26°   Wind: 0mph
Humidity: 77%   Direction: NA
Pressure: 30.34"   Gusts: NA
Location:  34.75°N, 106.29°W
Report Text: K0E0 251015Z AUTO 00000KT 10SM CLR 00/M03 A3034 RMK AO2 T00041032
Loading
Personal Weather Stations






























Interactive Weather Map
Tropical Storm Tracking
New forecast layout! Learn more

10-Day Weather Forecast

Advertisements
Track Severe Weather on mobile